Sarh, Chad

12:35 PM WAT on October 24, 2014 (GMT +0100)
Sarh | Change Station
CLOSE
Current Station
Airport
Location: Sarh,
Elevation: 1198 ft
Nearby Weather Stations

Elev 1198 ft 9.14 °N, 18.37 °E | Updated 35 minutes ago

Partly Cloudy
Partly Cloudy
90 °F
Feels Like 98 °F
N
0
Wind Variable Wind from North

Today
High -- | Low -- °F
--% Chance of Precip.
Yesterday
High -- | Low -- °F
Precip. -- in
5:34 AM 5:26 PM
New Moon, 0% visible
Pressure 29.92 in
Visibility 6.2 miles
Clouds Few 4000 ft
Heat Index 98 °F
Dew Point 73 °F
Humidity 59%
Rainfall 0.00 in
Snow Depth Not available.
UV 14 out of 12
Pollen Not available.
Air Quality Not available.
Flu Activity Not available.
METAR FTTA 241100Z 00000KT 9999 FEW040 32/23 Q1013

More Conditions Fewer Conditions

Pressure 29.92 in
Visibility 6.2 miles
Clouds Few 4000 ft
Heat Index 98 °F
Dew Point 73 °F
Humidity 59%
Rainfall 0.00 in
Snow Depth Not available.
UV 14 out of 12
Pollen Not available.
Air Quality Not available.
Flu Activity Not available.
METAR FTTA 241100Z 00000KT 9999 FEW040 32/23 Q1013

More Conditions Fewer Conditions

10-Day Weather Forecast

Almanac

Astronomy

Oct. 24, 2014 Rise Set
Actual Time 5:34 AM WAT 5:26 PM WAT
Civil Twilight 5:13 AM WAT 5:47 PM WAT
Nautical Twilight 4:48 AM WAT 6:12 PM WAT
Astronomical Twilight 4:24 AM WAT 6:37 PM WAT
Moon 5:53 AM WAT 6:00 PM WAT
Length of Visible Light 12h 34m
Length of Day
11h 51m
Tomorrow will be 0m 28s shorter.
New Moon, 0% of the Moon is Illuminated
Today
New Moon
Oct 30
First Quarter
Nov 6
Full
Nov 14
Last Quarter
Nov 22
New

Yesterday's Extremes

Country Highs Country Lows

Community

WunderPhotos

Upload Photos

1,764,525 photos uploaded!

WunderBlogs® & News

Nearby

Snow Depth

Not available.

Earthquake Activity

City Distance Mag. Time & Date
No recent earthquake activity has been reported nearby.
Minimum magnitude displayed is 2.5.

Coastal Water Temperatures

Place Temperature
No Stations Reporting

Nearby Weather Stations